Stockholm-Skavsta

Airport
ICAO code: 
ESKN
Summary
ICAO Region: 
EUR
Territory: 
Location: 
Nyköping,
Elevation: 
140 ft
Coordinates: 
Aerial View: 
58° 47' 18.963" N, 16° 54' 43.923" E
Metar
Observation
ESKN 191250Z 24020G31KT 9999 BKN015 06/03 Q1001
Station
Stockholm/Skavsta
Date/Time
2022-01-19 12:50:00
Wind direction
240°
Wind speed
20 kts
Lowest cloud amount
broken clouds
Temperature
6°C
Dew point
3°C
Humidity
81%
QNH
1001 hPa
Weather condition
n/a

Description

Stockholm-Skavsta Airport is an international airport near Nyköping, Sweden, approximately 100 km south of Stockholm. It serves Stockholm.

Climatology

Humid Continental climate (Köppen climate classification Dfb) - Variable weather patterns and a large seasonal temperature variance. Summers are often warm and humid with frequent thunderstorms and winters can be very cold with frequent snowfall and persistent snow cover.

Runways

Designator Length Width Surface Rops
16/34 2039 40 ASP Yes/Yes
8/26 2878 45 ASP Yes/Yes
Airport map: 
Aerial View: 

Accidents and Serious Incidents at or in the vicinity of ESKN

SKYbrary Partners:

Safety knowledge contributed by: